sensor_id;sensor_type;location;lat;lon;timestamp;pressure;altitude;pressure_sealevel;temperature;humidity
9249;BME280;4660;41.768;26.198;2023-04-26T00:01:55;99938.25;;;13.40;100.00
9249;BME280;4660;41.768;26.198;2023-04-26T00:04:22;99936.44;;;13.33;100.00
9249;BME280;4660;41.768;26.198;2023-04-26T00:06:48;99925.88;;;13.23;100.00
9249;BME280;4660;41.768;26.198;2023-04-26T00:09:14;99920.41;;;13.31;100.00
9249;BME280;4660;41.768;26.198;2023-04-26T00:11:39;99940.34;;;13.30;100.00
9249;BME280;4660;41.768;26.198;2023-04-26T00:14:05;99935.72;;;13.08;100.00
9249;BME280;4660;41.768;26.198;2023-04-26T00:16:30;99939.16;;;12.93;100.00
9249;BME280;4660;41.768;26.198;2023-04-26T00:18:56;99932.03;;;13.01;100.00
9249;BME280;4660;41.768;26.198;2023-04-26T00:21:21;99927.63;;;13.00;100.00
9249;BME280;4660;41.768;26.198;2023-04-26T00:23:47;99923.75;;;13.02;100.00
9249;BME280;4660;41.768;26.198;2023-04-26T00:26:12;99926.53;;;13.17;100.00
9249;BME280;4660;41.768;26.198;2023-04-26T00:28:38;99923.44;;;13.36;100.00
9249;BME280;4660;41.768;26.198;2023-04-26T00:31:03;99916.31;;;13.35;100.00
9249;BME280;4660;41.768;26.198;2023-04-26T00:33:29;99918.31;;;13.41;100.00
9249;BME280;4660;41.768;26.198;2023-04-26T00:35:54;99922.97;;;13.25;100.00
9249;BME280;4660;41.768;26.198;2023-04-26T00:38:20;99916.91;;;13.14;100.00
9249;BME280;4660;41.768;26.198;2023-04-26T00:40:46;99914.41;;;13.13;100.00
9249;BME280;4660;41.768;26.198;2023-04-26T00:43:11;99914.13;;;13.00;100.00
9249;BME280;4660;41.768;26.198;2023-04-26T00:45:37;99881.22;;;12.73;100.00
9249;BME280;4660;41.768;26.198;2023-04-26T00:48:02;99912.59;;;13.05;100.00
9249;BME280;4660;41.768;26.198;2023-04-26T00:50:30;99879.78;;;12.85;100.00
9249;BME280;4660;41.768;26.198;2023-04-26T00:52:59;99893.94;;;13.18;100.00
9249;BME280;4660;41.768;26.198;2023-04-26T00:55:26;99897.19;;;13.14;100.00
9249;BME280;4660;41.768;26.198;2023-04-26T00:57:52;99889.75;;;13.16;100.00
9249;BME280;4660;41.768;26.198;2023-04-26T01:00:18;99896.69;;;13.41;100.00
9249;BME280;4660;41.768;26.198;2023-04-26T01:02:44;99895.03;;;13.40;100.00
9249;BME280;4660;41.768;26.198;2023-04-26T01:05:09;99892.84;;;13.36;100.00
9249;BME280;4660;41.768;26.198;2023-04-26T01:07:36;99882.91;;;13.36;100.00
9249;BME280;4660;41.768;26.198;2023-04-26T01:10:03;99890.94;;;13.44;100.00
9249;BME280;4660;41.768;26.198;2023-04-26T01:12:30;99883.19;;;13.41;100.00
9249;BME280;4660;41.768;26.198;2023-04-26T01:14:56;99891.78;;;13.22;100.00
9249;BME280;4660;41.768;26.198;2023-04-26T01:17:23;99882.84;;;13.13;100.00
9249;BME280;4660;41.768;26.198;2023-04-26T01:19:50;99880.50;;;13.10;100.00
9249;BME280;4660;41.768;26.198;2023-04-26T01:22:16;99869.03;;;13.08;100.00
9249;BME280;4660;41.768;26.198;2023-04-26T01:24:44;99868.69;;;13.11;100.00
9249;BME280;4660;41.768;26.198;2023-04-26T01:27:10;99866.69;;;13.05;100.00
9249;BME280;4660;41.768;26.198;2023-04-26T01:29:36;99852.75;;;13.25;100.00
9249;BME280;4660;41.768;26.198;2023-04-26T01:32:02;99855.28;;;13.26;100.00
9249;BME280;4660;41.768;26.198;2023-04-26T01:34:28;99863.81;;;13.38;100.00
9249;BME280;4660;41.768;26.198;2023-04-26T01:36:53;99866.31;;;13.39;100.00
9249;BME280;4660;41.768;26.198;2023-04-26T01:39:19;99861.88;;;13.24;100.00
9249;BME280;4660;41.768;26.198;2023-04-26T01:41:44;99863.88;;;13.30;100.00
9249;BME280;4660;41.768;26.198;2023-04-26T01:44:10;99860.50;;;13.19;100.00
9249;BME280;4660;41.768;26.198;2023-04-26T01:46:35;99863.38;;;13.26;100.00
9249;BME280;4660;41.768;26.198;2023-04-26T01:49:01;99862.25;;;13.43;100.00
9249;BME280;4660;41.768;26.198;2023-04-26T01:51:26;99832.81;;;13.26;100.00
9249;BME280;4660;41.768;26.198;2023-04-26T01:53:52;99850.91;;;13.25;100.00
9249;BME280;4660;41.768;26.198;2023-04-26T01:56:19;99848.00;;;13.27;100.00
9249;BME280;4660;41.768;26.198;2023-04-26T01:58:44;99856.31;;;13.17;100.00
9249;BME280;4660;41.768;26.198;2023-04-26T02:01:10;99851.41;;;13.20;100.00
9249;BME280;4660;41.768;26.198;2023-04-26T02:03:36;99841.69;;;13.11;100.00
9249;BME280;4660;41.768;26.198;2023-04-26T02:06:02;99836.84;;;12.99;100.00
9249;BME280;4660;41.768;26.198;2023-04-26T02:08:28;99844.66;;;12.93;100.00
9249;BME280;4660;41.768;26.198;2023-04-26T02:10:54;99852.25;;;13.21;100.00
9249;BME280;4660;41.768;26.198;2023-04-26T02:13:20;99862.97;;;13.37;100.00
9249;BME280;4660;41.768;26.198;2023-04-26T02:15:46;99854.81;;;13.14;100.00
9249;BME280;4660;41.768;26.198;2023-04-26T02:18:11;99853.81;;;13.15;100.00
9249;BME280;4660;41.768;26.198;2023-04-26T02:20:40;99841.47;;;13.13;100.00
9249;BME280;4660;41.768;26.198;2023-04-26T02:23:08;99859.66;;;13.27;100.00
9249;BME280;4660;41.768;26.198;2023-04-26T02:25:33;99863.78;;;13.15;100.00
9249;BME280;4660;41.768;26.198;2023-04-26T02:27:59;99856.78;;;12.98;100.00
9249;BME280;4660;41.768;26.198;2023-04-26T02:30:24;99862.38;;;13.19;100.00
9249;BME280;4660;41.768;26.198;2023-04-26T02:32:55;99858.50;;;13.21;100.00
9249;BME280;4660;41.768;26.198;2023-04-26T02:35:20;99859.66;;;13.27;100.00
9249;BME280;4660;41.768;26.198;2023-04-26T02:37:46;99861.88;;;13.24;100.00
9249;BME280;4660;41.768;26.198;2023-04-26T02:40:16;99858.72;;;13.12;100.00
9249;BME280;4660;41.768;26.198;2023-04-26T02:42:42;99871.00;;;13.23;100.00
9249;BME280;4660;41.768;26.198;2023-04-26T02:45:08;99876.56;;;13.21;100.00
9249;BME280;4660;41.768;26.198;2023-04-26T02:47:33;99867.97;;;13.17;100.00
9249;BME280;4660;41.768;26.198;2023-04-26T02:50:08;99863.91;;;13.21;100.00
9249;BME280;4660;41.768;26.198;2023-04-26T02:52:36;99871.00;;;13.23;100.00
9249;BME280;4660;41.768;26.198;2023-04-26T02:55:03;99879.28;;;13.21;100.00
9249;BME280;4660;41.768;26.198;2023-04-26T02:57:29;99855.03;;;13.05;100.00
9249;BME280;4660;41.768;26.198;2023-04-26T02:59:56;99866.63;;;13.13;100.00
9249;BME280;4660;41.768;26.198;2023-04-26T03:02:21;99883.31;;;13.25;100.00
9249;BME280;4660;41.768;26.198;2023-04-26T03:04:47;99870.66;;;13.17;100.00
9249;BME280;4660;41.768;26.198;2023-04-26T03:07:12;99879.41;;;13.28;100.00
9249;BME280;4660;41.768;26.198;2023-04-26T03:09:38;99871.78;;;13.31;100.00
9249;BME280;4660;41.768;26.198;2023-04-26T03:12:05;99879.19;;;13.37;100.00
9249;BME280;4660;41.768;26.198;2023-04-26T03:14:31;99873.28;;;13.34;100.00
9249;BME280;4660;41.768;26.198;2023-04-26T03:17:00;99867.53;;;13.37;100.00
9249;BME280;4660;41.768;26.198;2023-04-26T03:19:27;99870.06;;;13.38;100.00
9249;BME280;4660;41.768;26.198;2023-04-26T03:21:55;99880.53;;;13.33;100.00
9249;BME280;4660;41.768;26.198;2023-04-26T03:24:21;99876.53;;;13.29;100.00
9249;BME280;4660;41.768;26.198;2023-04-26T03:26:47;99872.75;;;13.38;100.00
9249;BME280;4660;41.768;26.198;2023-04-26T03:29:12;99869.06;;;13.54;100.00
9249;BME280;4660;41.768;26.198;2023-04-26T03:31:38;99886.00;;;13.71;100.00
9249;BME280;4660;41.768;26.198;2023-04-26T03:34:03;99881.84;;;13.83;100.00
9249;BME280;4660;41.768;26.198;2023-04-26T03:36:29;99870.19;;;13.83;100.00
9249;BME280;4660;41.768;26.198;2023-04-26T03:38:54;99867.94;;;13.48;100.00
9249;BME280;4660;41.768;26.198;2023-04-26T03:41:20;99895.06;;;13.55;100.00
9249;BME280;4660;41.768;26.198;2023-04-26T03:43:47;99890.75;;;13.69;100.00
9249;BME280;4660;41.768;26.198;2023-04-26T03:46:12;99893.28;;;13.85;100.00
9249;BME280;4660;41.768;26.198;2023-04-26T03:48:38;99889.50;;;13.80;100.00
9249;BME280;4660;41.768;26.198;2023-04-26T03:51:05;99868.94;;;13.70;100.00
9249;BME280;4660;41.768;26.198;2023-04-26T03:53:30;99872.13;;;13.74;100.00
9249;BME280;4660;41.768;26.198;2023-04-26T03:55:56;99858.19;;;13.62;100.00
9249;BME280;4660;41.768;26.198;2023-04-26T03:58:23;99886.81;;;13.71;100.00
9249;BME280;4660;41.768;26.198;2023-04-26T04:00:49;99882.06;;;13.59;100.00
9249;BME280;4660;41.768;26.198;2023-04-26T04:03:14;99889.13;;;13.60;100.00
9249;BME280;4660;41.768;26.198;2023-04-26T04:05:40;99855.78;;;13.30;100.00
9249;BME280;4660;41.768;26.198;2023-04-26T04:08:06;99880.28;;;13.43;100.00
9249;BME280;4660;41.768;26.198;2023-04-26T04:10:31;99867.81;;;13.42;100.00
9249;BME280;4660;41.768;26.198;2023-04-26T04:12:57;99863.56;;;13.47;100.00
9249;BME280;4660;41.768;26.198;2023-04-26T04:15:23;99869.16;;;13.46;100.00
9249;BME280;4660;41.768;26.198;2023-04-26T04:17:50;99882.78;;;13.53;100.00
9249;BME280;4660;41.768;26.198;2023-04-26T04:20:16;99865.09;;;13.42;100.00
9249;BME280;4660;41.768;26.198;2023-04-26T04:22:42;99878.03;;;13.55;100.00
9249;BME280;4660;41.768;26.198;2023-04-26T04:25:08;99862.22;;;13.20;100.00
9249;BME280;4660;41.768;26.198;2023-04-26T04:27:38;99835.44;;;13.11;100.00
9249;BME280;4660;41.768;26.198;2023-04-26T04:30:04;99896.69;;;13.41;100.00
9249;BME280;4660;41.768;26.198;2023-04-26T04:32:31;99848.56;;;13.22;100.00
9249;BME280;4660;41.768;26.198;2023-04-26T04:34:58;99881.50;;;13.40;100.00
9249;BME280;4660;41.768;26.198;2023-04-26T04:37:24;99884.72;;;13.44;100.00
9249;BME280;4660;41.768;26.198;2023-04-26T04:39:51;99890.38;;;13.49;100.00
9249;BME280;4660;41.768;26.198;2023-04-26T04:42:17;99881.19;;;13.35;100.00
9249;BME280;4660;41.768;26.198;2023-04-26T04:44:44;99885.06;;;13.41;100.00
9249;BME280;4660;41.768;26.198;2023-04-26T04:47:10;99872.44;;;13.33;100.00
9249;BME280;4660;41.768;26.198;2023-04-26T04:49:36;99871.13;;;13.29;100.00
9249;BME280;4660;41.768;26.198;2023-04-26T04:52:02;99871.97;;;13.53;100.00
9249;BME280;4660;41.768;26.198;2023-04-26T04:54:28;99880.97;;;13.68;100.00
9249;BME280;4660;41.768;26.198;2023-04-26T04:56:54;99893.41;;;13.92;100.00
9249;BME280;4660;41.768;26.198;2023-04-26T04:59:19;99892.41;;;13.70;100.00
9249;BME280;4660;41.768;26.198;2023-04-26T05:01:45;99897.75;;;13.78;100.00
9249;BME280;4660;41.768;26.198;2023-04-26T05:04:30;99881.31;;;14.02;100.00
9249;BME280;4660;41.768;26.198;2023-04-26T05:07:16;99894.75;;;14.11;100.00
9249;BME280;4660;41.768;26.198;2023-04-26T05:09:42;99887.47;;;13.96;100.00
9249;BME280;4660;41.768;26.198;2023-04-26T05:12:08;99887.44;;;13.82;100.00
9249;BME280;4660;41.768;26.198;2023-04-26T05:14:34;99886.38;;;13.68;100.00
9249;BME280;4660;41.768;26.198;2023-04-26T05:16:59;99901.63;;;13.61;100.00
9249;BME280;4660;41.768;26.198;2023-04-26T05:19:25;99881.38;;;13.57;100.00
9249;BME280;4660;41.768;26.198;2023-04-26T05:21:51;99883.00;;;13.43;100.00
9249;BME280;4660;41.768;26.198;2023-04-26T05:24:17;99896.63;;;13.49;100.00
9249;BME280;4660;41.768;26.198;2023-04-26T05:26:43;99880.03;;;13.38;100.00
9249;BME280;4660;41.768;26.198;2023-04-26T05:29:09;99892.56;;;13.54;100.00
9249;BME280;4660;41.768;26.198;2023-04-26T05:31:35;99903.50;;;13.60;100.00
9249;BME280;4660;41.768;26.198;2023-04-26T05:34:02;99842.59;;;13.27;100.00
9249;BME280;4660;41.768;26.198;2023-04-26T05:36:28;99857.53;;;13.60;100.00
9249;BME280;4660;41.768;26.198;2023-04-26T05:38:54;99886.59;;;13.81;100.00
9249;BME280;4660;41.768;26.198;2023-04-26T05:41:19;99888.81;;;13.77;100.00
9249;BME280;4660;41.768;26.198;2023-04-26T05:43:46;99874.53;;;13.69;100.00
9249;BME280;4660;41.768;26.198;2023-04-26T05:46:11;99880.59;;;13.71;100.00
9249;BME280;4660;41.768;26.198;2023-04-26T05:48:37;99874.81;;;13.74;100.00
9249;BME280;4660;41.768;26.198;2023-04-26T05:51:03;99906.78;;;13.93;100.00
9249;BME280;4660;41.768;26.198;2023-04-26T05:53:29;99904.25;;;14.07;100.00
9249;BME280;4660;41.768;26.198;2023-04-26T05:55:55;99891.13;;;14.03;100.00
9249;BME280;4660;41.768;26.198;2023-04-26T05:58:21;99914.25;;;14.21;100.00
9249;BME280;4660;41.768;26.198;2023-04-26T06:00:46;99909.50;;;14.08;100.00
9249;BME280;4660;41.768;26.198;2023-04-26T06:03:12;99901.66;;;14.13;100.00
9249;BME280;4660;41.768;26.198;2023-04-26T06:05:39;99907.91;;;14.28;100.00
9249;BME280;4660;41.768;26.198;2023-04-26T06:08:05;99906.63;;;14.24;100.00
9249;BME280;4660;41.768;26.198;2023-04-26T06:10:37;99897.47;;;14.25;100.00
9249;BME280;4660;41.768;26.198;2023-04-26T06:13:03;99862.00;;;14.05;100.00
9249;BME280;4660;41.768;26.198;2023-04-26T06:15:30;99849.91;;;14.16;100.00
9249;BME280;4660;41.768;26.198;2023-04-26T06:18:01;99909.63;;;14.29;100.00
9249;BME280;4660;41.768;26.198;2023-04-26T06:20:26;99885.53;;;14.20;100.00
9249;BME280;4660;41.768;26.198;2023-04-26T06:22:52;99885.19;;;14.23;100.00
9249;BME280;4660;41.768;26.198;2023-04-26T06:25:19;99908.69;;;14.37;100.00
9249;BME280;4660;41.768;26.198;2023-04-26T06:27:46;99911.13;;;14.32;100.00
9249;BME280;4660;41.768;26.198;2023-04-26T06:30:12;99885.53;;;14.20;100.00
9249;BME280;4660;41.768;26.198;2023-04-26T06:32:39;99908.06;;;14.50;100.00
9249;BME280;4660;41.768;26.198;2023-04-26T06:35:06;99898.25;;;14.64;100.00
9249;BME280;4660;41.768;26.198;2023-04-26T06:37:32;99907.16;;;14.57;100.00
9249;BME280;4660;41.768;26.198;2023-04-26T06:39:57;99889.78;;;14.67;100.00
9249;BME280;4660;41.768;26.198;2023-04-26T06:42:23;99898.81;;;14.74;100.00
9249;BME280;4660;41.768;26.198;2023-04-26T06:44:50;99897.69;;;14.83;100.00
9249;BME280;4660;41.768;26.198;2023-04-26T06:47:17;99904.06;;;15.11;100.00
9249;BME280;4660;41.768;26.198;2023-04-26T06:49:43;99873.44;;;15.11;100.00
9249;BME280;4660;41.768;26.198;2023-04-26T06:52:12;99887.63;;;15.13;100.00
9249;BME280;4660;41.768;26.198;2023-04-26T06:54:44;99870.34;;;15.14;100.00
9249;BME280;4660;41.768;26.198;2023-04-26T06:57:33;99899.13;;;15.15;100.00
9249;BME280;4660;41.768;26.198;2023-04-26T07:00:00;99894.44;;;15.24;100.00
9249;BME280;4660;41.768;26.198;2023-04-26T07:02:30;99903.84;;;15.49;100.00
9249;BME280;4660;41.768;26.198;2023-04-26T07:04:58;99833.13;;;15.01;100.00
9249;BME280;4660;41.768;26.198;2023-04-26T07:07:49;99931.78;;;15.86;100.00
9249;BME280;4660;41.768;26.198;2023-04-26T07:10:25;99854.09;;;15.57;100.00
9249;BME280;4660;41.768;26.198;2023-04-26T07:12:52;99857.53;;;15.87;100.00
9249;BME280;4660;41.768;26.198;2023-04-26T07:15:20;99907.16;;;16.09;100.00
9249;BME280;4660;41.768;26.198;2023-04-26T07:17:47;99894.41;;;15.81;100.00
9249;BME280;4660;41.768;26.198;2023-04-26T07:22:54;99770.50;;;15.11;100.00
9249;BME280;4660;41.768;26.198;2023-04-26T07:25:22;99811.25;;;15.46;100.00
9249;BME280;4660;41.768;26.198;2023-04-26T07:27:51;99911.19;;;16.19;100.00
9249;BME280;4660;41.768;26.198;2023-04-26T07:30:18;99893.06;;;16.27;100.00
9249;BME280;4660;41.768;26.198;2023-04-26T07:32:43;99886.69;;;16.41;100.00
9249;BME280;4660;41.768;26.198;2023-04-26T07:35:10;99837.44;;;16.09;100.00
9249;BME280;4660;41.768;26.198;2023-04-26T07:37:41;99917.84;;;16.73;100.00
9249;BME280;4660;41.768;26.198;2023-04-26T07:40:09;99870.47;;;16.54;100.00
9249;BME280;4660;41.768;26.198;2023-04-26T07:42:36;99909.13;;;16.91;100.00
9249;BME280;4660;41.768;26.198;2023-04-26T07:45:02;99881.09;;;16.84;100.00
9249;BME280;4660;41.768;26.198;2023-04-26T07:47:28;99912.47;;;16.93;100.00
9249;BME280;4660;41.768;26.198;2023-04-26T07:49:53;99878.84;;;16.94;100.00
9249;BME280;4660;41.768;26.198;2023-04-26T07:52:19;99911.16;;;17.23;100.00
9249;BME280;4660;41.768;26.198;2023-04-26T07:54:45;99881.22;;;17.17;100.00
9249;BME280;4660;41.768;26.198;2023-04-26T07:57:23;99908.50;;;17.63;100.00
9249;BME280;4660;41.768;26.198;2023-04-26T08:00:13;99925.97;;;18.02;100.00
9249;BME280;4660;41.768;26.198;2023-04-26T08:03:13;99901.81;;;17.59;100.00
9249;BME280;4660;41.768;26.198;2023-04-26T08:06:14;99921.13;;;17.97;100.00
9249;BME280;4660;41.768;26.198;2023-04-26T08:09:00;99870.81;;;17.33;100.00
9249;BME280;4660;41.768;26.198;2023-04-26T08:11:26;99844.63;;;17.13;100.00
9249;BME280;4660;41.768;26.198;2023-04-26T08:13:59;99832.91;;;17.12;100.00
9249;BME280;4660;41.768;26.198;2023-04-26T08:16:26;99808.66;;;17.04;100.00
9249;BME280;4660;41.768;26.198;2023-04-26T08:18:53;99849.47;;;17.24;100.00
9249;BME280;4660;41.768;26.198;2023-04-26T08:21:20;99841.94;;;17.32;100.00
9249;BME280;4660;41.768;26.198;2023-04-26T08:23:48;99818.09;;;17.41;100.00
9249;BME280;4660;41.768;26.198;2023-04-26T08:26:16;99854.97;;;17.83;100.00
9249;BME280;4660;41.768;26.198;2023-04-26T08:28:42;99905.56;;;18.57;100.00
9249;BME280;4660;41.768;26.198;2023-04-26T08:31:12;99801.38;;;18.10;100.00
9249;BME280;4660;41.768;26.198;2023-04-26T08:33:38;99867.41;;;18.57;100.00
9249;BME280;4660;41.768;26.198;2023-04-26T08:36:07;99856.09;;;18.74;100.00
9249;BME280;4660;41.768;26.198;2023-04-26T08:38:43;99867.34;;;18.90;100.00
9249;BME280;4660;41.768;26.198;2023-04-26T08:41:12;99873.28;;;18.74;100.00
9249;BME280;4660;41.768;26.198;2023-04-26T08:43:44;99911.22;;;18.76;100.00
9249;BME280;4660;41.768;26.198;2023-04-26T08:46:16;99907.97;;;18.98;100.00
9249;BME280;4660;41.768;26.198;2023-04-26T08:49:18;99907.53;;;19.08;100.00
9249;BME280;4660;41.768;26.198;2023-04-26T08:51:49;99912.41;;;18.93;100.00
9249;BME280;4660;41.768;26.198;2023-04-26T08:54:21;99871.19;;;18.63;100.00
9249;BME280;4660;41.768;26.198;2023-04-26T08:56:50;99866.47;;;18.96;100.00
9249;BME280;4660;41.768;26.198;2023-04-26T08:59:22;99917.84;;;19.44;100.00
9249;BME280;4660;41.768;26.198;2023-04-26T09:04:25;99857.13;;;19.24;100.00
9249;BME280;4660;41.768;26.198;2023-04-26T09:07:20;99852.13;;;19.14;100.00
9249;BME280;4660;41.768;26.198;2023-04-26T09:15:36;99827.56;;;19.14;100.00
9249;BME280;4660;41.768;26.198;2023-04-26T09:18:20;99865.72;;;19.59;100.00
9249;BME280;4660;41.768;26.198;2023-04-26T09:21:14;99905.75;;;19.72;100.00
9249;BME280;4660;41.768;26.198;2023-04-26T09:24:53;99804.84;;;19.27;100.00
9249;BME280;4660;41.768;26.198;2023-04-26T10:07:36;99722.84;;;18.97;100.00
9249;BME280;4660;41.768;26.198;2023-04-26T10:10:07;99817.22;;;19.86;100.00
9249;BME280;4660;41.768;26.198;2023-04-26T10:12:33;99736.75;;;19.45;100.00
9249;BME280;4660;41.768;26.198;2023-04-26T10:27:55;99763.34;;;20.37;99.52
9249;BME280;4660;41.768;26.198;2023-04-26T10:30:23;99803.69;;;20.71;100.00
9249;BME280;4660;41.768;26.198;2023-04-26T10:35:20;99754.81;;;21.23;100.00
9249;BME280;4660;41.768;26.198;2023-04-26T10:40:32;99811.03;;;21.49;100.00
9249;BME280;4660;41.768;26.198;2023-04-26T10:45:48;99793.72;;;20.95;100.00
9249;BME280;4660;41.768;26.198;2023-04-26T10:48:34;99738.56;;;20.68;100.00
9249;BME280;4660;41.768;26.198;2023-04-26T10:51:07;99824.28;;;21.22;100.00
9249;BME280;4660;41.768;26.198;2023-04-26T10:59:10;99815.72;;;20.52;100.00
9249;BME280;4660;41.768;26.198;2023-04-26T11:01:37;99795.28;;;20.36;100.00
9249;BME280;4660;41.768;26.198;2023-04-26T11:04:16;99797.28;;;20.66;99.88
9249;BME280;4660;41.768;26.198;2023-04-26T11:06:52;99785.44;;;20.53;100.00
9249;BME280;4660;41.768;26.198;2023-04-26T11:12:11;99767.13;;;21.02;94.81
9249;BME280;4660;41.768;26.198;2023-04-26T11:14:40;99791.38;;;21.40;89.49
9249;BME280;4660;41.768;26.198;2023-04-26T11:17:07;99792.03;;;21.78;88.78
9249;BME280;4660;41.768;26.198;2023-04-26T11:19:34;99788.56;;;22.41;93.33
9249;BME280;4660;41.768;26.198;2023-04-26T11:22:02;99731.06;;;22.17;83.04
9249;BME280;4660;41.768;26.198;2023-04-26T11:24:30;99770.72;;;22.27;87.88
9249;BME280;4660;41.768;26.198;2023-04-26T11:26:59;99772.13;;;22.41;91.75
9249;BME280;4660;41.768;26.198;2023-04-26T11:29:25;99786.22;;;22.21;95.54
9249;BME280;4660;41.768;26.198;2023-04-26T11:31:56;99743.78;;;21.30;93.78
9249;BME280;4660;41.768;26.198;2023-04-26T11:34:30;99791.25;;;21.35;96.35
9249;BME280;4660;41.768;26.198;2023-04-26T11:36:58;99773.56;;;21.08;98.49
9249;BME280;4660;41.768;26.198;2023-04-26T11:39:25;99778.88;;;21.33;100.00
9249;BME280;4660;41.768;26.198;2023-04-26T11:42:11;99761.72;;;21.26;95.56
9249;BME280;4660;41.768;26.198;2023-04-26T11:44:56;99714.97;;;20.85;97.84
9249;BME280;4660;41.768;26.198;2023-04-26T11:47:25;99720.09;;;20.82;97.12
9249;BME280;4660;41.768;26.198;2023-04-26T11:49:56;99749.34;;;20.93;99.04
9249;BME280;4660;41.768;26.198;2023-04-26T11:52:26;99693.41;;;20.17;99.11
9249;BME280;4660;41.768;26.198;2023-04-26T11:55:07;99744.97;;;20.07;100.00
9249;BME280;4660;41.768;26.198;2023-04-26T11:57:35;99788.53;;;20.39;100.00
9249;BME280;4660;41.768;26.198;2023-04-26T12:00:11;99793.16;;;20.38;100.00
9249;BME280;4660;41.768;26.198;2023-04-26T12:02:45;99767.22;;;20.29;100.00
9249;BME280;4660;41.768;26.198;2023-04-26T12:05:21;99798.41;;;20.40;100.00
9249;BME280;4660;41.768;26.198;2023-04-26T12:07:53;99800.91;;;20.23;100.00
9249;BME280;4660;41.768;26.198;2023-04-26T12:10:35;99789.50;;;20.08;100.00
9249;BME280;4660;41.768;26.198;2023-04-26T12:13:04;99783.41;;;19.87;100.00
9249;BME280;4660;41.768;26.198;2023-04-26T12:15:32;99779.97;;;19.73;100.00
9249;BME280;4660;41.768;26.198;2023-04-26T12:18:06;99801.13;;;19.78;100.00
9249;BME280;4660;41.768;26.198;2023-04-26T12:20:37;99779.25;;;19.60;100.00
9249;BME280;4660;41.768;26.198;2023-04-26T12:23:13;99764.63;;;19.47;100.00
9249;BME280;4660;41.768;26.198;2023-04-26T12:25:40;99766.84;;;19.32;100.00
9249;BME280;4660;41.768;26.198;2023-04-26T12:28:15;99774.06;;;19.20;100.00
9249;BME280;4660;41.768;26.198;2023-04-26T12:30:44;99771.88;;;19.04;100.00
9249;BME280;4660;41.768;26.198;2023-04-26T12:33:10;99735.41;;;18.66;100.00
9249;BME280;4660;41.768;26.198;2023-04-26T12:35:37;99799.09;;;18.72;100.00
9249;BME280;4660;41.768;26.198;2023-04-26T12:38:03;99736.31;;;17.82;100.00
9249;BME280;4660;41.768;26.198;2023-04-26T12:40:30;99765.41;;;17.75;100.00
9249;BME280;4660;41.768;26.198;2023-04-26T12:42:57;99823.16;;;17.84;100.00
9249;BME280;4660;41.768;26.198;2023-04-26T12:45:24;99815.84;;;17.51;100.00
9249;BME280;4660;41.768;26.198;2023-04-26T12:47:53;99808.84;;;16.96;100.00
9249;BME280;4660;41.768;26.198;2023-04-26T12:50:20;99740.25;;;16.26;100.00
9249;BME280;4660;41.768;26.198;2023-04-26T12:52:46;99861.91;;;16.57;100.00
9249;BME280;4660;41.768;26.198;2023-04-26T12:55:14;99847.00;;;16.40;100.00
9249;BME280;4660;41.768;26.198;2023-04-26T12:57:42;99839.59;;;16.20;100.00
9249;BME280;4660;41.768;26.198;2023-04-26T13:00:10;99850.59;;;16.12;100.00
9249;BME280;4660;41.768;26.198;2023-04-26T13:02:36;99862.00;;;16.01;100.00
9249;BME280;4660;41.768;26.198;2023-04-26T13:05:02;99817.31;;;15.69;100.00
9249;BME280;4660;41.768;26.198;2023-04-26T13:07:32;99842.13;;;15.94;100.00
9249;BME280;4660;41.768;26.198;2023-04-26T13:09:59;99858.41;;;15.94;100.00
9249;BME280;4660;41.768;26.198;2023-04-26T13:12:26;99868.75;;;15.84;100.00
9249;BME280;4660;41.768;26.198;2023-04-26T13:14:52;99849.06;;;15.75;100.00
9249;BME280;4660;41.768;26.198;2023-04-26T13:17:19;99889.19;;;15.80;100.00
9249;BME280;4660;41.768;26.198;2023-04-26T13:19:45;99866.59;;;15.73;100.00
9249;BME280;4660;41.768;26.198;2023-04-26T13:22:11;99824.28;;;15.35;100.00
9249;BME280;4660;41.768;26.198;2023-04-26T13:24:39;99900.75;;;15.67;100.00
9249;BME280;4660;41.768;26.198;2023-04-26T13:27:04;99868.88;;;15.33;100.00
9249;BME280;4660;41.768;26.198;2023-04-26T13:29:32;99908.75;;;15.39;100.00
9249;BME280;4660;41.768;26.198;2023-04-26T13:31:58;99782.63;;;14.57;100.00
9249;BME280;4660;41.768;26.198;2023-04-26T13:34:25;99777.50;;;14.48;100.00
9249;BME280;4660;41.768;26.198;2023-04-26T13:36:52;99770.06;;;14.05;100.00
9249;BME280;4660;41.768;26.198;2023-04-26T13:39:26;99839.63;;;14.41;100.00
9249;BME280;4660;41.768;26.198;2023-04-26T13:41:56;99875.97;;;14.47;100.00
9249;BME280;4660;41.768;26.198;2023-04-26T13:44:24;99824.88;;;13.99;100.00
9249;BME280;4660;41.768;26.198;2023-04-26T13:46:49;99846.81;;;14.04;100.00
9249;BME280;4660;41.768;26.198;2023-04-26T13:49:16;99928.28;;;14.39;100.00
9249;BME280;4660;41.768;26.198;2023-04-26T13:51:41;99830.97;;;13.64;100.00
9249;BME280;4660;41.768;26.198;2023-04-26T13:54:07;99837.03;;;13.51;100.00
9249;BME280;4660;41.768;26.198;2023-04-26T13:56:33;99830.06;;;13.34;100.00
9249;BME280;4660;41.768;26.198;2023-04-26T13:58:59;99838.78;;;13.13;100.00
9249;BME280;4660;41.768;26.198;2023-04-26T14:01:28;99851.34;;;13.29;100.00
9249;BME280;4660;41.768;26.198;2023-04-26T14:03:54;99932.50;;;13.66;100.00
9249;BME280;4660;41.768;26.198;2023-04-26T14:06:20;99954.91;;;13.52;100.00
9249;BME280;4660;41.768;26.198;2023-04-26T14:08:47;99851.94;;;12.85;100.00
9249;BME280;4660;41.768;26.198;2023-04-26T14:11:13;99893.28;;;12.85;100.00
9249;BME280;4660;41.768;26.198;2023-04-26T14:13:40;99879.81;;;12.77;100.00
9249;BME280;4660;41.768;26.198;2023-04-26T14:16:06;99952.56;;;13.10;100.00
9249;BME280;4660;41.768;26.198;2023-04-26T14:18:33;99890.06;;;12.51;100.00
9249;BME280;4660;41.768;26.198;2023-04-26T14:20:58;99945.31;;;12.63;100.00
9249;BME280;4660;41.768;26.198;2023-04-26T14:23:24;99824.47;;;12.03;100.00
9249;BME280;4660;41.768;26.198;2023-04-26T14:25:53;99834.44;;;12.02;100.00
9249;BME280;4660;41.768;26.198;2023-04-26T14:28:19;99873.91;;;12.43;100.00